Lafayette, IN (47903)

5:34 AM EDT on May 05, 2015 (GMT -0400)
APRSWXNET | | Change Station
CLOSE
Current Station
Personal Weather Station
Location: Lafayette, IN
Elevation: 617 ft
Nearby Weather Stations

Elev 617 ft 40.46 °N, 86.83 °W | Updated 19 minutes ago

Overcast
Overcast
61 °F
Feels Like 61 °F
N
0
Wind Variable Wind from NE
Gusts 0.0 mph

Today
High -- | Low -- °F
--% Chance of Precip.
Yesterday
High -- | Low -- °F
Precip. -- in
6:42 AM 8:46 PM
Full, 98% visible
Pressure 30.15 in
Visibility 6.0 miles
Clouds Scattered Clouds 7000 ft
Mostly Cloudy 9500 ft
Mostly Cloudy 11000 ft
Dew Point 61 °F
Humidity 99%
Rainfall in
Snow Depth Not available.
UV 0 out of 12
Pollen 10.40 out of 12
Air Quality Not available.
Flu Activity Local Activity
METAR KLAF 050854Z AUTO 10003KT 6SM BR SCT070 BKN095 BKN110 16/15 A3016 RMK AO2 SLP210 T01560150 50002

More Conditions Fewer Conditions

Pressure 30.15 in
Visibility 6.0 miles
Clouds Scattered Clouds 7000 ft
Mostly Cloudy 9500 ft
Mostly Cloudy 11000 ft
Dew Point 61 °F
Humidity 99%
Rainfall in
Snow Depth Not available.
UV 0 out of 12
Pollen 10.40 out of 12
Air Quality Not available.
Flu Activity Local Activity
METAR KLAF 050854Z AUTO 10003KT 6SM BR SCT070 BKN095 BKN110 16/15 A3016 RMK AO2 SLP210 T01560150 50002

More Conditions Fewer Conditions

Nepal has a long way to go to dig out and rebuild from a devastating earthquake. We have teamed up with several charities and organizations to make contributing to the relief effort as easy as possible.
How you can help: Portlight Strategies | Red Cross

10-Day Weather Forecast

Almanac

Astronomy

May. 05, 2015 Rise Set
Actual Time
Civil Twilight
Nautical Twilight
Astronomical Twilight
Moon
Length of Visible Light
Length of Day
Tomorrow will be .
, % of the Moon is Illuminated

Today's Extremes

State Highs State Lows

Community

WunderPhotos

Upload Photos

1,818,824 photos uploaded!

WunderBlogs® & News

Nearby

Air Quality

  Air Quality AQ Index Pollutant
Not available.

Snow Depth

Station Depth Elevation

Earthquake Activity

City Distance Mag. Time & Date
Minimum magnitude displayed is 2.5.

Coastal Water Temperatures

Place Temperature

Stations

Nearby Weather Stations

Station Location Temp. Windchill Dew Point Humidity Wind Precip. Elev Updated Type